createdAt,value
2018-12-29T00:00:55.343Z,102970.91
2018-12-29T00:03:24.635Z,102960.39
2018-12-29T00:05:53.947Z,102955.91
2018-12-29T00:08:23.230Z,102955.43
2018-12-29T00:10:52.537Z,102947.90
2018-12-29T00:13:21.828Z,102946.05
2018-12-29T00:15:51.074Z,102947.36
2018-12-29T00:18:20.411Z,102944.30
2018-12-29T00:20:49.679Z,102945.16
2018-12-29T00:23:19.065Z,102941.13
2018-12-29T00:25:48.332Z,102943.74
2018-12-29T00:28:17.651Z,102943.27
2018-12-29T00:30:46.859Z,102938.44
2018-12-29T00:33:16.164Z,102950.73
2018-12-29T00:35:45.406Z,102957.80
2018-12-29T00:38:14.711Z,102954.03
2018-12-29T00:40:44.179Z,102956.98
2018-12-29T00:43:13.526Z,102949.48
2018-12-29T00:45:42.888Z,102949.38
2018-12-29T00:48:12.178Z,102945.94
2018-12-29T00:50:41.517Z,102939.33
2018-12-29T00:53:10.818Z,102941.94
2018-12-29T00:55:40.088Z,102932.70
2018-12-29T00:58:09.337Z,102936.75
2018-12-29T01:00:38.608Z,102934.17
2018-12-29T01:03:07.889Z,102933.34
2018-12-29T01:05:37.192Z,102932.36
2018-12-29T01:08:06.433Z,102928.77
2018-12-29T01:10:35.676Z,102936.64
2018-12-29T01:13:04.955Z,102935.72
2018-12-29T01:15:34.202Z,102934.95
2018-12-29T01:18:03.608Z,102934.45
2018-12-29T01:20:32.938Z,102939.70
2018-12-29T01:23:02.218Z,102938.99
2018-12-29T01:25:31.504Z,102938.11
2018-12-29T01:28:00.821Z,102946.86
2018-12-29T01:30:30.094Z,102944.77
2018-12-29T01:32:59.382Z,102945.06
2018-12-29T01:35:28.624Z,102945.49
2018-12-29T01:37:57.896Z,102951.23
2018-12-29T01:40:27.167Z,102948.61
2018-12-29T01:42:56.428Z,102957.02
2018-12-29T01:45:25.732Z,102943.89
2018-12-29T01:47:55.029Z,102945.99
2018-12-29T01:50:24.328Z,102956.06
2018-12-29T01:52:53.598Z,102951.23
2018-12-29T01:55:22.892Z,102953.53
2018-12-29T01:57:52.140Z,102955.82
2018-12-29T02:00:21.426Z,102954.67
2018-12-29T02:02:50.683Z,102956.45
2018-12-29T02:05:19.962Z,102955.97
2018-12-29T02:07:49.211Z,102956.90
2018-12-29T02:10:18.492Z,102957.88
2018-12-29T02:12:47.764Z,102964.05
2018-12-29T02:15:17.106Z,102909.23
2018-12-29T02:17:46.383Z,102959.25
2018-12-29T02:20:15.633Z,102969.80
2018-12-29T02:22:44.999Z,102970.77
2018-12-29T02:25:14.284Z,102965.41
2018-12-29T02:27:43.578Z,102958.95
2018-12-29T02:30:12.897Z,102967.31
2018-12-29T02:32:42.237Z,102965.47
2018-12-29T02:35:11.617Z,102963.28
2018-12-29T02:37:40.936Z,102961.67
2018-12-29T02:40:10.299Z,102953.70
2018-12-29T02:42:39.602Z,102955.84
2018-12-29T02:45:08.844Z,102953.41
2018-12-29T02:47:38.099Z,102948.98
2018-12-29T02:50:07.384Z,102951.66
2018-12-29T02:52:36.657Z,102940.70
2018-12-29T02:55:05.962Z,102931.98
2018-12-29T02:57:35.267Z,102938.17
2018-12-29T03:00:04.560Z,102930.68
2018-12-29T03:02:33.808Z,102931.52
2018-12-29T03:05:03.113Z,102924.94
2018-12-29T03:07:32.362Z,102938.02
2018-12-29T03:10:01.669Z,102926.20
2018-12-29T03:12:30.902Z,102924.98
2018-12-29T03:15:00.286Z,102922.79
2018-12-29T03:17:29.598Z,102916.27
2018-12-29T03:19:58.884Z,102921.87
2018-12-29T03:22:28.236Z,102916.57
2018-12-29T03:24:57.611Z,102920.12
2018-12-29T03:27:26.931Z,102920.16
2018-12-29T03:29:56.212Z,102919.69
2018-12-29T03:32:25.548Z,102923.72
2018-12-29T03:34:54.924Z,102917.33
2018-12-29T03:37:24.206Z,102915.09
2018-12-29T03:39:53.678Z,102918.12
2018-12-29T03:42:22.945Z,102916.85
2018-12-29T03:44:52.183Z,102911.67
2018-12-29T03:47:21.440Z,102911.64
2018-12-29T03:49:50.678Z,102908.53
2018-12-29T03:52:19.924Z,102909.48
2018-12-29T03:54:49.186Z,102910.37
2018-12-29T03:57:18.416Z,102910.76
2018-12-29T03:59:47.688Z,102921.71
2018-12-29T04:02:16.913Z,102921.80
2018-12-29T04:04:46.268Z,102919.08
2018-12-29T04:07:15.654Z,102919.13
2018-12-29T04:09:45.059Z,102920.48
2018-12-29T04:12:19.668Z,102924.42
2018-12-29T04:14:48.986Z,102926.17
2018-12-29T04:17:18.258Z,102930.95
2018-12-29T04:19:47.582Z,102925.34
2018-12-29T04:22:16.870Z,102923.55
2018-12-29T04:24:46.192Z,102929.64
2018-12-29T04:27:15.572Z,102926.62
2018-12-29T04:29:44.968Z,102926.62
2018-12-29T04:32:14.304Z,102925.30
2018-12-29T04:34:43.577Z,102925.87
2018-12-29T04:37:12.898Z,102921.84
2018-12-29T04:39:42.171Z,102931.53
2018-12-29T04:42:11.443Z,102925.34
2018-12-29T04:44:40.791Z,102921.84
2018-12-29T04:47:10.075Z,102920.52
2018-12-29T04:49:39.309Z,102928.84
2018-12-29T04:52:08.591Z,102921.41
2018-12-29T04:54:37.884Z,102923.59
2018-12-29T04:57:07.124Z,102928.50
2018-12-29T04:59:36.380Z,102931.52
2018-12-29T05:02:05.640Z,102925.78
2018-12-29T05:04:34.923Z,102927.63
2018-12-29T05:07:04.190Z,102925.34
2018-12-29T05:09:33.459Z,102928.37
2018-12-29T05:12:02.717Z,102931.95
2018-12-29T05:14:31.972Z,102936.34
2018-12-29T05:17:01.283Z,102940.33
2018-12-29T05:19:30.568Z,102940.33
2018-12-29T05:21:59.818Z,102938.44
2018-12-29T05:24:29.064Z,102924.38
2018-12-29T05:26:58.365Z,102929.16
2018-12-29T05:29:27.623Z,102933.09
2018-12-29T05:31:56.886Z,102928.80
2018-12-29T05:34:26.174Z,102925.69
2018-12-29T05:36:55.457Z,102924.42
2018-12-29T05:39:24.727Z,102925.69
2018-12-29T05:41:53.981Z,102927.02
2018-12-29T05:44:25.685Z,102927.88
2018-12-29T05:46:52.501Z,102932.66
2018-12-29T05:49:21.735Z,102927.88
2018-12-29T05:51:52.123Z,102920.91
2018-12-29T05:54:21.311Z,102930.99
2018-12-29T05:56:50.521Z,102928.80
2018-12-29T05:59:19.777Z,102937.39
2018-12-29T06:01:49.012Z,102936.86
2018-12-29T06:04:18.273Z,102939.05
2018-12-29T06:06:47.611Z,102938.31
2018-12-29T06:09:16.887Z,102937.38
2018-12-29T06:11:46.163Z,102938.75
2018-12-29T06:14:15.399Z,102940.14
2018-12-29T06:16:44.659Z,102937.59
2018-12-29T06:19:14.007Z,102938.20
2018-12-29T06:21:43.270Z,102943.06
2018-12-29T06:24:12.608Z,102942.66
2018-12-29T06:26:41.879Z,102942.62
2018-12-29T06:29:11.124Z,102950.95
2018-12-29T06:31:40.434Z,102945.25
2018-12-29T06:34:09.646Z,102945.65
2018-12-29T06:36:38.975Z,102942.66
2018-12-29T06:39:08.515Z,102946.20
2018-12-29T06:41:37.785Z,102949.75
2018-12-29T06:44:07.047Z,102950.23
2018-12-29T06:46:36.291Z,102953.81
2018-12-29T06:49:05.565Z,102952.54
2018-12-29T06:51:34.807Z,102956.48
2018-12-29T06:54:04.147Z,102955.60
2018-12-29T06:56:33.369Z,102959.55
2018-12-29T06:59:02.750Z,102955.13
2018-12-29T07:01:32.023Z,102961.27
2018-12-29T07:04:01.285Z,102963.06
2018-12-29T07:06:30.519Z,102961.27
2018-12-29T07:08:59.805Z,102959.55
2018-12-29T07:11:29.129Z,102968.36
2018-12-29T07:13:58.391Z,102954.36
2018-12-29T07:16:27.695Z,102963.89
2018-12-29T07:18:56.983Z,102958.13
2018-12-29T07:21:26.273Z,102960.23
2018-12-29T07:23:55.673Z,102967.60
2018-12-29T07:26:25.003Z,102966.60
2018-12-29T07:28:54.280Z,102962.58
2018-12-29T07:31:23.677Z,102962.53
2018-12-29T07:33:52.941Z,102961.57
2018-12-29T07:36:22.267Z,102966.48
2018-12-29T07:38:51.548Z,102963.09
2018-12-29T07:41:20.835Z,102966.41
2018-12-29T07:43:50.146Z,102965.45
2018-12-29T07:46:19.553Z,102966.81
2018-12-29T07:48:48.871Z,102966.45
2018-12-29T07:51:18.167Z,102966.81
2018-12-29T07:53:47.484Z,102964.33
2018-12-29T07:56:16.846Z,102959.98
2018-12-29T07:58:46.178Z,102963.02
2018-12-29T08:01:15.452Z,102959.03
2018-12-29T08:03:44.858Z,102970.07
2018-12-29T08:06:14.214Z,102969.28
2018-12-29T08:08:43.481Z,102963.10
2018-12-29T08:11:12.786Z,102965.73
2018-12-29T08:13:42.080Z,102954.77
2018-12-29T08:16:11.412Z,102950.82
2018-12-29T08:18:40.700Z,102942.48
2018-12-29T08:21:09.998Z,102951.26
2018-12-29T08:23:39.241Z,102949.94
2018-12-29T08:26:08.590Z,102947.39
2018-12-29T08:28:37.846Z,102940.38
2018-12-29T08:31:07.159Z,102939.53
2018-12-29T08:33:36.464Z,102940.88
2018-12-29T08:36:05.738Z,102934.70
2018-12-29T08:38:35.010Z,102944.09
2018-12-29T08:41:04.288Z,102937.55
2018-12-29T08:43:33.552Z,102930.90
2018-12-29T08:46:02.864Z,102923.84
2018-12-29T08:48:32.192Z,102925.63
2018-12-29T08:51:01.604Z,102930.02
2018-12-29T08:53:30.898Z,102916.83
2018-12-29T08:56:00.168Z,102925.60
2018-12-29T08:58:29.440Z,102922.13
2018-12-29T09:00:58.703Z,102915.41
2018-12-29T09:03:28.023Z,102928.13
2018-12-29T09:05:57.279Z,102924.14
2018-12-29T09:08:26.529Z,102914.23
2018-12-29T09:10:55.788Z,102914.36
2018-12-29T09:13:25.104Z,102909.63
2018-12-29T09:15:54.429Z,102914.11
2018-12-29T09:18:23.673Z,102916.15
2018-12-29T09:20:53.040Z,102920.41
2018-12-29T09:23:22.394Z,102916.32
2018-12-29T09:25:51.690Z,102911.35
2018-12-29T09:28:20.943Z,102908.58
2018-12-29T09:30:50.235Z,102906.31
2018-12-29T09:33:19.493Z,102894.84
2018-12-29T09:35:48.799Z,102901.86
2018-12-29T09:38:18.083Z,102900.98
2018-12-29T09:40:47.345Z,102887.75
2018-12-29T09:43:16.712Z,102850.86
2018-12-29T09:45:45.956Z,102876.32
2018-12-29T09:48:15.285Z,102850.94
2018-12-29T09:50:44.598Z,102880.48
2018-12-29T09:53:13.887Z,102867.00
2018-12-29T09:55:43.160Z,102853.48
2018-12-29T09:58:12.641Z,102852.70
2018-12-29T10:00:41.910Z,102854.11
2018-12-29T10:03:11.173Z,102847.56
2018-12-29T10:05:40.502Z,102858.15
2018-12-29T10:08:09.806Z,102845.23
2018-12-29T10:10:39.101Z,102846.16
2018-12-29T10:13:08.362Z,102846.41
2018-12-29T10:15:37.681Z,102839.05
2018-12-29T10:18:07.019Z,102837.45
2018-12-29T10:20:36.319Z,102827.79
2018-12-29T10:23:05.594Z,102826.46
2018-12-29T10:25:34.874Z,102814.53
2018-12-29T10:28:04.131Z,102823.72
2018-12-29T10:30:33.441Z,102812.30
2018-12-29T10:33:02.681Z,102813.70
2018-12-29T10:35:32.088Z,102795.25
2018-12-29T10:38:01.410Z,102799.18
2018-12-29T10:40:30.677Z,102798.34
2018-12-29T10:42:59.943Z,102786.50
2018-12-29T10:45:29.328Z,102779.03
2018-12-29T10:47:58.663Z,102769.40
2018-12-29T10:50:27.956Z,102765.39
2018-12-29T10:52:57.166Z,102766.66
2018-12-29T10:55:26.545Z,102763.59
2018-12-29T10:57:55.807Z,102753.52
2018-12-29T11:00:25.092Z,102750.86
2018-12-29T11:02:54.460Z,102745.61
2018-12-29T11:05:23.726Z,102740.75
2018-12-29T11:07:53.033Z,102741.66
2018-12-29T11:10:22.340Z,102737.69
2018-12-29T11:12:51.728Z,102735.92
2018-12-29T11:15:21.056Z,102744.73
2018-12-29T11:17:50.324Z,102739.81
2018-12-29T11:20:19.665Z,102747.25
2018-12-29T11:22:49.054Z,102745.56
2018-12-29T11:25:18.386Z,102738.57
2018-12-29T11:27:47.642Z,102738.98
2018-12-29T11:30:16.954Z,102735.06
2018-12-29T11:32:46.375Z,102732.04
2018-12-29T11:35:15.760Z,102733.30
2018-12-29T11:37:45.043Z,102731.98
2018-12-29T11:40:14.317Z,102723.22
2018-12-29T11:42:43.603Z,102724.14
2018-12-29T11:45:13.050Z,102707.49
2018-12-29T11:47:49.592Z,102706.12
2018-12-29T11:50:11.660Z,102707.03
2018-12-29T11:52:41.036Z,102705.61
2018-12-29T11:55:10.304Z,102704.72
2018-12-29T11:57:39.761Z,102702.88
2018-12-29T12:00:09.690Z,102695.84
2018-12-29T12:02:39.008Z,102684.38
2018-12-29T12:05:08.278Z,102684.39
2018-12-29T12:07:37.622Z,102679.95
2018-12-29T12:10:06.984Z,102680.38
2018-12-29T12:12:36.561Z,102682.13
2018-12-29T12:15:06.110Z,102680.42
2018-12-29T12:17:35.370Z,102695.40
2018-12-29T12:20:05.178Z,102688.42
2018-12-29T12:22:34.448Z,102683.60
2018-12-29T12:25:03.774Z,102675.27
2018-12-29T12:27:33.156Z,102679.66
2018-12-29T12:30:02.449Z,102682.30
2018-12-29T12:32:31.896Z,102674.80
2018-12-29T12:35:01.272Z,102667.75
2018-12-29T12:37:30.562Z,102661.63
2018-12-29T12:39:59.904Z,102655.02
2018-12-29T12:42:29.190Z,102651.93
2018-12-29T12:44:58.638Z,102669.09
2018-12-29T12:47:27.974Z,102689.77
2018-12-29T12:49:57.658Z,102698.97
2018-12-29T12:52:26.993Z,102694.16
2018-12-29T12:54:56.362Z,102693.31
2018-12-29T12:57:25.706Z,102678.84
2018-12-29T12:59:55.068Z,102665.23
2018-12-29T13:02:24.475Z,102667.86
2018-12-29T13:04:54.374Z,102666.97
2018-12-29T13:07:23.672Z,102674.03
2018-12-29T13:09:52.983Z,102664.79
2018-12-29T13:12:22.306Z,102648.06
2018-12-29T13:14:51.586Z,102655.56
2018-12-29T13:17:20.910Z,102650.75
2018-12-29T13:19:50.210Z,102653.40
2018-12-29T13:22:19.479Z,102651.64
2018-12-29T13:24:48.814Z,102653.84
2018-12-29T13:27:18.204Z,102635.81
2018-12-29T13:29:47.526Z,102622.22
2018-12-29T13:32:16.833Z,102619.98
2018-12-29T13:34:46.439Z,102620.92
2018-12-29T13:37:15.725Z,102597.62
2018-12-29T13:39:45.131Z,102597.19
2018-12-29T13:42:14.409Z,102586.20
2018-12-29T13:44:43.739Z,102584.02
2018-12-29T13:47:13.050Z,102583.20
2018-12-29T13:49:42.339Z,102573.53
2018-12-29T13:52:11.629Z,102565.59
2018-12-29T13:54:41.135Z,102544.97
2018-12-29T13:57:13.411Z,102541.90
2018-12-29T13:59:42.660Z,102538.37
2018-12-29T14:02:12.022Z,102541.45
2018-12-29T14:04:41.266Z,102540.98
2018-12-29T14:07:13.892Z,102534.86
2018-12-29T14:09:43.161Z,102531.80
2018-12-29T14:12:12.505Z,102524.77
2018-12-29T14:14:44.671Z,102518.19
2018-12-29T14:17:11.192Z,102517.70
2018-12-29T14:19:40.467Z,102515.07
2018-12-29T14:22:09.755Z,102500.14
2018-12-29T14:24:39.018Z,102499.69
2018-12-29T14:27:08.316Z,102507.16
2018-12-29T14:29:37.680Z,102498.34
2018-12-29T14:32:06.969Z,102486.50
2018-12-29T14:34:36.273Z,102478.13
2018-12-29T14:37:05.559Z,102465.86
2018-12-29T14:39:35.024Z,102459.27
2018-12-29T14:42:04.383Z,102458.81
2018-12-29T14:44:33.703Z,102441.69
2018-12-29T14:47:03.091Z,102444.78
2018-12-29T14:49:32.522Z,102437.75
2018-12-29T14:52:01.787Z,102424.13
2018-12-29T14:54:31.391Z,102433.34
2018-12-29T14:57:00.668Z,102440.39
2018-12-29T14:59:29.952Z,102434.66
2018-12-29T15:01:59.313Z,102428.98
2018-12-29T15:04:28.601Z,102419.30
2018-12-29T15:06:57.893Z,102407.91
2018-12-29T15:09:27.335Z,102404.80
2018-12-29T15:11:56.532Z,102394.29
2018-12-29T15:14:25.802Z,102392.52
2018-12-29T15:16:55.161Z,102388.57
2018-12-29T15:19:24.508Z,102378.03
2018-12-29T15:21:53.770Z,102359.14
2018-12-29T15:24:23.103Z,102375.83
2018-12-29T15:26:52.444Z,102386.83
2018-12-29T15:29:21.856Z,102393.41
2018-12-29T15:31:51.171Z,102423.72
2018-12-29T15:34:20.520Z,102434.69
2018-12-29T15:36:49.888Z,102434.24
2018-12-29T15:39:19.171Z,102428.12
2018-12-29T15:41:48.586Z,102435.58
2018-12-29T15:44:17.937Z,102459.28
2018-12-29T15:46:47.283Z,102444.33
2018-12-29T15:49:16.622Z,102454.85
2018-12-29T15:51:45.978Z,102436.82
2018-12-29T15:54:15.251Z,102427.16
2018-12-29T15:56:44.551Z,102415.73
2018-12-29T15:59:13.898Z,102399.47
2018-12-29T16:01:43.185Z,102375.74
2018-12-29T16:04:12.452Z,102367.84
2018-12-29T16:06:41.844Z,102377.95
2018-12-29T16:09:11.170Z,102360.37
2018-12-29T16:11:40.559Z,102354.64
2018-12-29T16:14:09.869Z,102346.72
2018-12-29T16:16:39.106Z,102327.00
2018-12-29T16:19:08.476Z,102332.69
2018-12-29T16:21:37.761Z,102330.92
2018-12-29T16:24:07.077Z,102323.47
2018-12-29T16:26:36.484Z,102329.17
2018-12-29T16:29:05.839Z,102323.91
2018-12-29T16:31:35.155Z,102299.78
2018-12-29T16:34:04.478Z,102311.63
2018-12-29T16:36:33.899Z,102305.91
2018-12-29T16:39:03.176Z,102319.05
2018-12-29T16:41:32.498Z,102308.08
2018-12-29T16:44:01.778Z,102308.09
2018-12-29T16:46:31.065Z,102302.41
2018-12-29T16:49:06.783Z,102301.09
2018-12-29T16:51:29.771Z,102307.25
2018-12-29T16:53:59.068Z,102303.73
2018-12-29T16:56:28.373Z,102301.98
2018-12-29T16:58:57.664Z,102289.70
2018-12-29T17:01:27.098Z,102300.23
2018-12-29T17:03:56.393Z,102285.76
2018-12-29T17:06:25.803Z,102298.92
2018-12-29T17:08:55.126Z,102280.03
2018-12-29T17:11:24.439Z,102285.74
2018-12-29T17:13:53.772Z,102274.79
2018-12-29T17:16:23.106Z,102268.67
2018-12-29T17:18:52.401Z,102262.50
2018-12-29T17:21:21.674Z,102256.81
2018-12-29T17:23:50.964Z,102259.45
2018-12-29T17:26:20.200Z,102233.55
2018-12-29T17:28:49.538Z,102241.90
2018-12-29T17:31:18.900Z,102234.03
2018-12-29T17:33:48.184Z,102242.38
2018-12-29T17:36:17.520Z,102254.67
2018-12-29T17:38:46.824Z,102234.94
2018-12-29T17:41:16.096Z,102223.09
2018-12-29T17:43:45.517Z,102216.06
2018-12-29T17:46:14.805Z,102220.00
2018-12-29T17:48:44.066Z,102220.89
2018-12-29T17:51:13.368Z,102208.60
2018-12-29T17:53:47.987Z,102209.93
2018-12-29T17:56:11.894Z,102195.44
2018-12-29T17:58:41.160Z,102174.81
2018-12-29T18:01:10.424Z,102184.04
2018-12-29T18:03:39.713Z,102198.07
2018-12-29T18:06:10.834Z,102186.23
2018-12-29T18:08:38.664Z,102185.36
2018-12-29T18:11:07.940Z,102168.23
2018-12-29T18:13:37.335Z,102149.83
2018-12-29T18:16:06.656Z,102153.75
2018-12-29T18:18:35.934Z,102142.36
2018-12-29T18:21:05.194Z,102148.08
2018-12-29T18:23:34.514Z,102128.78
2018-12-29T18:26:03.776Z,102116.93
2018-12-29T18:28:33.066Z,102120.44
2018-12-29T18:31:02.353Z,102119.13
2018-12-29T18:33:37.181Z,102113.84
2018-12-29T18:36:00.971Z,102106.41
2018-12-29T18:38:30.305Z,102104.64
2018-12-29T18:40:59.575Z,102103.77
2018-12-29T18:43:28.845Z,102103.75
2018-12-29T18:45:58.250Z,102102.88
2018-12-29T18:48:27.569Z,102094.52
2018-12-29T18:50:56.892Z,102097.15
2018-12-29T18:53:26.200Z,102092.33
2018-12-29T18:55:55.501Z,102076.97
2018-12-29T18:58:24.774Z,102076.08
2018-12-29T19:00:54.044Z,102071.68
2018-12-29T19:03:23.289Z,102070.39
2018-12-29T19:05:52.597Z,102062.05
2018-12-29T19:08:21.882Z,102058.54
2018-12-29T19:10:51.176Z,102051.04
2018-12-29T19:13:20.545Z,102041.40
2018-12-29T19:15:49.905Z,102044.91
2018-12-29T19:18:19.224Z,102034.77
2018-12-29T19:20:48.573Z,102039.16
2018-12-29T19:23:17.875Z,102040.47
2018-12-29T19:25:47.203Z,102025.96
2018-12-29T19:28:16.492Z,102017.16
2018-12-29T19:30:45.749Z,102033.41
2018-12-29T19:33:15.094Z,102024.16
2018-12-29T19:35:44.396Z,102020.61
2018-12-29T19:38:13.688Z,102017.08
2018-12-29T19:40:42.993Z,102015.75
2018-12-29T19:43:12.331Z,102005.19
2018-12-29T19:45:41.656Z,101994.16
2018-12-29T19:48:10.970Z,102008.64
2018-12-29T19:50:40.254Z,101999.37
2018-12-29T19:53:09.535Z,101983.55
2018-12-29T19:55:38.834Z,101983.10
2018-12-29T19:58:08.130Z,101975.66
2018-12-29T20:00:37.424Z,101980.96
2018-12-29T20:03:06.686Z,101963.38
2018-12-29T20:05:36.043Z,101965.54
2018-12-29T20:08:05.335Z,101968.63
2018-12-29T20:10:34.685Z,101980.94
2018-12-29T20:13:03.979Z,101976.06
2018-12-29T20:15:33.405Z,101960.27
2018-12-29T20:18:02.687Z,101962.88
2018-12-29T20:20:31.969Z,101953.23
2018-12-29T20:23:01.239Z,101953.21
2018-12-29T20:25:31.062Z,101951.84
2018-12-29T20:28:00.500Z,101952.73
2018-12-29T20:30:29.726Z,101955.34
2018-12-29T20:32:59.304Z,101940.75
2018-12-29T20:35:28.505Z,101939.91
2018-12-29T20:37:57.868Z,101945.16
2018-12-29T20:40:27.204Z,101946.89
2018-12-29T20:42:56.557Z,101946.45
2018-12-29T20:45:25.874Z,101953.04
2018-12-29T20:47:55.192Z,101972.78
2018-12-29T20:50:24.473Z,101943.36
2018-12-29T20:52:53.811Z,101949.02
2018-12-29T20:55:23.115Z,101965.30
2018-12-29T20:57:52.444Z,101956.55
2018-12-29T21:00:21.738Z,101944.73
2018-12-29T21:02:51.354Z,101960.98
2018-12-29T21:05:20.631Z,101973.74
2018-12-29T21:07:49.972Z,101965.41
2018-12-29T21:10:19.254Z,101956.19
2018-12-29T21:12:48.679Z,101975.98
2018-12-29T21:15:17.926Z,101977.78
2018-12-29T21:17:47.356Z,101976.11
2018-12-29T21:20:17.542Z,101979.66
2018-12-29T21:22:46.255Z,101963.92
2018-12-29T21:25:15.602Z,101963.92
2018-12-29T21:27:44.898Z,101976.25
2018-12-29T21:30:14.183Z,101967.02
2018-12-29T21:32:43.493Z,101965.73
2018-12-29T21:35:12.830Z,101963.97
2018-12-29T21:37:42.108Z,101967.47
2018-12-29T21:40:11.400Z,101978.03
2018-12-29T21:42:40.696Z,101965.35
2018-12-29T21:45:10.047Z,101971.94
2018-12-29T21:47:39.414Z,101978.95
2018-12-29T21:50:10.460Z,101982.91
2018-12-29T21:52:38.008Z,101968.42
2018-12-29T21:55:07.332Z,101968.87
2018-12-29T21:57:36.620Z,101982.51
2018-12-29T22:00:06.407Z,101974.16
2018-12-29T22:02:35.667Z,101975.05
2018-12-29T22:05:05.009Z,101985.14
2018-12-29T22:07:34.281Z,101977.70
2018-12-29T22:10:04.035Z,101989.55
2018-12-29T22:12:33.336Z,102000.97
2018-12-29T22:15:02.687Z,101983.43
2018-12-29T22:17:31.991Z,101997.05
2018-12-29T22:20:01.273Z,101998.81
2018-12-29T22:22:30.499Z,101993.97
2018-12-29T22:24:59.796Z,101997.51
2018-12-29T22:27:29.202Z,101993.09
2018-12-29T22:29:58.478Z,101996.59
2018-12-29T22:32:27.805Z,101995.29
2018-12-29T22:34:57.076Z,101993.56
2018-12-29T22:37:26.406Z,102019.89
2018-12-29T22:39:55.733Z,101998.39
2018-12-29T22:42:24.965Z,102005.40
2018-12-29T22:44:54.239Z,101986.55
2018-12-29T22:47:23.601Z,101981.70
2018-12-29T22:49:52.869Z,101984.35
2018-12-29T22:52:22.222Z,101981.27
2018-12-29T22:54:51.508Z,101986.98
2018-12-29T22:57:20.853Z,101989.59
2018-12-29T22:59:50.211Z,101999.28
2018-12-29T23:02:20.029Z,102001.47
2018-12-29T23:04:49.320Z,102000.58
2018-12-29T23:07:18.650Z,101999.71
2018-12-29T23:09:47.929Z,101988.73
2018-12-29T23:12:17.253Z,101983.44
2018-12-29T23:14:46.523Z,101981.70
2018-12-29T23:17:16.243Z,101999.25
2018-12-29T23:19:45.957Z,101988.30
2018-12-29T23:22:14.863Z,101999.27
2018-12-29T23:24:44.122Z,102004.52
2018-12-29T23:27:13.449Z,102004.10
2018-12-29T23:29:42.769Z,102002.78
2018-12-29T23:32:12.038Z,102008.05
2018-12-29T23:34:41.371Z,102000.59
2018-12-29T23:37:10.655Z,102004.96
2018-12-29T23:39:40.011Z,101997.94
2018-12-29T23:42:09.239Z,102004.55
2018-12-29T23:44:38.531Z,102008.04
2018-12-29T23:47:07.852Z,102016.37
2018-12-29T23:49:37.307Z,102023.83
2018-12-29T23:52:06.576Z,102025.56
2018-12-29T23:54:35.839Z,102021.61
2018-12-29T23:57:05.173Z,102007.13
2018-12-29T23:59:34.454Z,102018.09
